Terminal Aerodrome Forecast
Issued by NWS

Home | Current Version | Previous Version | Text Only | Print | Product List | Glossary On
Versions: 1 2 3 4 5 6 7 8 9 10 11 12 13 14 15 16 17 18 19
000
FTUS42 TJSJ 211700 RRA
TAFKPK
TAF
TKPK 211742Z 2118/2218 07012G18KT P6SM VCTS SCT014CB BKN030
      TEMPO 2118/2121 5SM SHRA BKN012
     FM212300 08012KT P6SM VCTS SCT015CB BKN030
     FM221300 07015G20KT P6SM VCSH SCT022
      AMD NOT SKED 2202/2211=

USA.gov is the U.S. government's official web portal to all federal, state and local government web resources and services.